Time;durP1;ratioP1;P1;durP2;ratioP2;P2;SDS_P1;SDS_P2;PMS_P1;PMS_P2;Temp;Humidity;BMP_temperature;BMP_pressure;BME280_temperature;BME280_humidity;BME280_pressure;Samples;Min_cycle;Max_cycle;Signal;HPM_P1;HPM_P2
2021/09/18 00:00:15;;;;;;;3.67;1.95;;;19.60;93.50;;;;;;5055295;28;20024;-72
2021/09/18 00:02:41;;;;;;;4.50;2.35;;;19.60;93.60;;;;;;5055352;28;20033;-71
2021/09/18 00:05:07;;;;;;;3.60;2.50;;;19.60;93.30;;;;;;5055295;28;20553;-75
2021/09/18 00:07:33;;;;;;;3.30;2.00;;;19.60;93.30;;;;;;5055472;28;20048;-73
2021/09/18 00:09:59;;;;;;;2.97;1.98;;;19.40;93.70;;;;;;5055212;28;20021;-73
2021/09/18 00:12:24;;;;;;;2.83;2.17;;;19.30;94.00;;;;;;5055654;28;20036;-73
2021/09/18 00:14:50;;;;;;;3.92;2.35;;;19.30;94.10;;;;;;5055281;28;20082;-75
2021/09/18 00:17:16;;;;;;;6.65;2.50;;;19.30;93.90;;;;;;5055024;28;20025;-72
2021/09/18 00:19:41;;;;;;;4.25;2.15;;;19.30;94.40;;;;;;5055074;28;20058;-74
2021/09/18 00:22:07;;;;;;;4.90;2.67;;;19.20;94.70;;;;;;5054952;28;20029;-72
2021/09/18 00:24:33;;;;;;;5.90;2.30;;;19.20;95.00;;;;;;5055221;28;20495;-73
2021/09/18 00:26:58;;;;;;;3.90;2.30;;;19.20;94.30;;;;;;5054855;28;20499;-74
2021/09/18 00:29:24;;;;;;;6.60;2.38;;;19.10;94.40;;;;;;5054817;28;20364;-74
2021/09/18 00:31:50;;;;;;;2.72;2.30;;;19.20;94.40;;;;;;5054794;28;20482;-74
2021/09/18 00:34:16;;;;;;;4.28;2.30;;;19.20;94.60;;;;;;5054691;28;20514;-75
2021/09/18 00:36:42;;;;;;;4.05;2.40;;;19.20;94.40;;;;;;5054786;28;20040;-74
2021/09/18 00:39:08;;;;;;;5.72;2.63;;;19.20;94.40;;;;;;5054928;28;20387;-73
2021/09/18 00:41:33;;;;;;;4.95;2.50;;;19.10;94.50;;;;;;5054886;28;20025;-74
2021/09/18 00:43:59;;;;;;;3.72;2.50;;;19.10;94.50;;;;;;5054805;28;20075;-73
2021/09/18 00:46:25;;;;;;;4.70;2.80;;;19.10;94.40;;;;;;5054521;28;20036;-73
2021/09/18 00:48:51;;;;;;;3.20;2.40;;;19.10;94.50;;;;;;5054498;28;20029;-76
2021/09/18 00:51:18;;;;;;;3.53;2.67;;;19.10;94.70;;;;;;5054696;28;20055;-72
2021/09/18 00:53:44;;;;;;;4.97;3.05;;;18.90;95.30;;;;;;5054290;28;20029;-74
2021/09/18 00:56:11;;;;;;;3.95;2.70;;;18.90;95.20;;;;;;5054265;28;20533;-72
2021/09/18 00:58:36;;;;;;;3.72;2.80;;;18.80;95.20;;;;;;5054201;28;20553;-74
2021/09/18 01:01:03;;;;;;;5.90;3.08;;;18.80;95.50;;;;;;5054260;28;20100;-72
2021/09/18 01:03:29;;;;;;;4.03;2.60;;;19.00;95.10;;;;;;5054181;28;20020;-72
2021/09/18 01:05:59;;;;;;;5.93;3.40;;;19.00;95.00;;;;;;5053931;28;20033;-72
2021/09/18 01:08:27;;;;;;;4.25;2.67;;;18.80;95.40;;;;;;5053947;28;20102;-73
2021/09/18 01:10:53;;;;;;;4.50;2.67;;;18.50;96.20;;;;;;5054022;28;20069;-74
2021/09/18 01:13:20;;;;;;;3.72;2.60;;;18.50;96.50;;;;;;5053897;28;20021;-75
2021/09/18 01:15:48;;;;;;;5.85;2.60;;;18.60;96.00;;;;;;5054197;28;20028;-73
2021/09/18 01:18:14;;;;;;;5.07;2.65;;;18.80;95.90;;;;;;5053869;28;20025;-72
2021/09/18 01:20:42;;;;;;;5.15;3.03;;;18.90;95.40;;;;;;5054119;28;20104;-75
2021/09/18 01:23:08;;;;;;;5.40;2.58;;;18.80;95.90;;;;;;5054117;28;20017;-75
2021/09/18 01:25:37;;;;;;;3.85;2.42;;;18.80;95.50;;;;;;5054078;28;20025;-73
2021/09/18 01:28:05;;;;;;;4.65;2.90;;;18.90;95.40;;;;;;5053741;28;20032;-75
2021/09/18 01:30:32;;;;;;;5.28;2.80;;;18.80;95.50;;;;;;5053664;28;20027;-74
2021/09/18 01:32:59;;;;;;;5.53;2.50;;;18.70;95.80;;;;;;5052274;28;20395;-74
2021/09/18 01:35:26;;;;;;;4.28;2.55;;;18.60;96.00;;;;;;5053598;28;20100;-72
2021/09/18 01:37:52;;;;;;;4.88;2.85;;;18.60;96.30;;;;;;5054148;28;20025;-73
2021/09/18 01:40:24;;;;;;;5.60;3.40;;;18.60;96.30;;;;;;5053784;28;20539;-73
2021/09/18 01:42:49;;;;;;;4.57;2.50;;;18.70;96.00;;;;;;5053776;28;20040;-74
2021/09/18 01:45:16;;;;;;;4.93;2.42;;;18.80;95.70;;;;;;5053740;28;20057;-72
2021/09/18 01:47:47;;;;;;;4.93;2.88;;;18.70;95.90;;;;;;5053388;28;20029;-73
2021/09/18 01:50:20;;;;;;;5.93;2.58;;;18.70;95.70;;;;;;5052048;28;20433;-72
2021/09/18 01:52:49;;;;;;;5.32;2.90;;;18.70;96.00;;;;;;5053510;28;20024;-74
2021/09/18 01:55:16;;;;;;;5.03;2.88;;;18.70;95.90;;;;;;5053280;28;20025;-73
2021/09/18 01:57:47;;;;;;;4.80;2.80;;;18.80;95.80;;;;;;5053285;28;20021;-75
2021/09/18 02:00:14;;;;;;;4.45;2.78;;;18.70;95.80;;;;;;5053224;28;20501;-74
2021/09/18 02:02:40;;;;;;;5.55;3.22;;;18.70;96.00;;;;;;5052885;28;20075;-75
2021/09/18 02:05:07;;;;;;;6.80;2.70;;;18.70;96.00;;;;;;5053185;28;20028;-74
2021/09/18 02:07:33;;;;;;;3.00;2.50;;;18.60;96.20;;;;;;5052870;28;20037;-72
2021/09/18 02:09:59;;;;;;;4.15;2.60;;;18.30;97.00;;;;;;5053697;28;20029;-75
2021/09/18 02:12:24;;;;;;;4.28;2.60;;;18.40;96.80;;;;;;5053041;28;20017;-73
2021/09/18 02:14:50;;;;;;;4.57;2.88;;;18.30;96.90;;;;;;5053268;28;20068;-72
2021/09/18 02:17:16;;;;;;;4.20;2.90;;;18.30;97.00;;;;;;5053309;28;20384;-74
2021/09/18 02:19:42;;;;;;;5.45;2.90;;;18.20;97.30;;;;;;5055230;28;20033;-74
2021/09/18 02:22:07;;;;;;;4.43;2.58;;;18.20;97.60;;;;;;5059659;28;20020;-73
2021/09/18 02:24:33;;;;;;;5.47;2.83;;;18.20;97.30;;;;;;5059870;28;20029;-73
2021/09/18 02:26:58;;;;;;;3.75;2.67;;;18.20;97.40;;;;;;5059866;28;20112;-74
2021/09/18 02:29:24;;;;;;;3.47;2.60;;;18.30;97.20;;;;;;5059570;28;20131;-74
2021/09/18 02:31:50;;;;;;;4.57;2.50;;;18.30;97.20;;;;;;5059572;28;20107;-72
2021/09/18 02:34:15;;;;;;;5.70;2.88;;;18.30;97.10;;;;;;5059483;28;20028;-74
2021/09/18 02:36:41;;;;;;;4.10;2.55;;;18.30;97.20;;;;;;5059796;28;20031;-73
2021/09/18 02:39:08;;;;;;;4.03;2.30;;;18.30;97.20;;;;;;5059766;28;20092;-74
2021/09/18 02:41:33;;;;;;;3.28;2.30;;;18.30;97.30;;;;;;5059494;28;20021;-74
2021/09/18 02:43:59;;;;;;;4.07;2.58;;;18.30;97.30;;;;;;5059493;28;20029;-74
2021/09/18 02:46:25;;;;;;;4.10;2.80;;;18.30;97.40;;;;;;5059741;28;20505;-72
2021/09/18 02:48:50;;;;;;;3.22;2.65;;;18.30;97.30;;;;;;5059472;28;20099;-72
2021/09/18 02:51:16;;;;;;;6.28;2.70;;;18.30;97.30;;;;;;5058069;28;20437;-72
2021/09/18 02:53:42;;;;;;;4.43;2.72;;;18.20;97.50;;;;;;5059615;28;20028;-74
2021/09/18 02:56:07;;;;;;;4.63;3.10;;;18.20;97.80;;;;;;5059354;28;20104;-74
2021/09/18 02:58:33;;;;;;;4.75;2.85;;;18.20;97.80;;;;;;5059264;28;20102;-73
2021/09/18 03:00:58;;;;;;;6.00;2.85;;;18.10;98.10;;;;;;5059592;28;20056;-72
2021/09/18 03:03:24;;;;;;;5.35;2.83;;;18.10;98.20;;;;;;5059558;28;20067;-73
2021/09/18 03:05:50;;;;;;;4.95;2.45;;;18.00;98.20;;;;;;5059302;28;20056;-72
2021/09/18 03:08:15;;;;;;;6.82;2.55;;;18.10;98.10;;;;;;5059172;28;20419;-74
2021/09/18 03:10:41;;;;;;;4.72;2.72;;;18.10;98.30;;;;;;5059250;28;20434;-72
2021/09/18 03:13:07;;;;;;;5.50;2.72;;;18.00;98.30;;;;;;5059164;28;20475;-74
2021/09/18 03:15:32;;;;;;;3.85;2.60;;;18.10;98.00;;;;;;5059192;28;20399;-74
2021/09/18 03:17:58;;;;;;;6.13;2.78;;;18.20;97.90;;;;;;5059179;28;20025;-73
2021/09/18 03:20:24;;;;;;;9.30;3.22;;;18.20;97.80;;;;;;5059437;28;20017;-75
2021/09/18 03:22:50;;;;;;;4.03;2.80;;;18.20;98.10;;;;;;5059297;28;20098;-73
2021/09/18 03:25:16;;;;;;;4.60;2.42;;;18.20;97.90;;;;;;5059395;28;20013;-74
2021/09/18 03:27:41;;;;;;;4.30;2.60;;;18.20;98.00;;;;;;5059329;28;20442;-72
2021/09/18 03:30:08;;;;;;;3.47;2.67;;;18.20;98.10;;;;;;5059084;28;20032;-73
2021/09/18 03:32:34;;;;;;;4.45;2.58;;;18.20;98.10;;;;;;5055059;28;20109;-71
2021/09/18 03:35:00;;;;;;;4.45;2.70;;;18.10;98.10;;;;;;5055807;28;20487;-72
2021/09/18 03:37:26;;;;;;;3.97;2.90;;;18.00;98.50;;;;;;5055792;28;20075;-75
2021/09/18 03:39:51;;;;;;;5.95;2.97;;;18.00;98.70;;;;;;5055837;28;20048;-72
2021/09/18 03:42:17;;;;;;;5.88;3.10;;;18.00;98.60;;;;;;5055735;28;20025;-73
2021/09/18 03:44:43;;;;;;;4.50;2.80;;;18.00;98.70;;;;;;5055985;28;20025;-72
2021/09/18 03:47:08;;;;;;;4.80;2.90;;;18.00;98.80;;;;;;5055967;28;20029;-73
2021/09/18 03:49:34;;;;;;;4.40;2.60;;;18.00;99.30;;;;;;5055596;28;20017;-74
2021/09/18 03:52:00;;;;;;;5.55;3.38;;;18.10;98.70;;;;;;5055343;28;20112;-75
2021/09/18 03:54:26;;;;;;;4.68;2.80;;;18.10;98.90;;;;;;5055746;28;20472;-74
2021/09/18 03:56:51;;;;;;;4.38;2.92;;;18.00;99.00;;;;;;5055799;28;20021;-73
2021/09/18 03:59:17;;;;;;;4.60;2.90;;;17.90;99.10;;;;;;5055337;28;20143;-72
2021/09/18 04:01:43;;;;;;;4.63;3.10;;;17.90;99.30;;;;;;5055343;28;20032;-72
2021/09/18 04:04:09;;;;;;;4.85;3.17;;;17.90;99.40;;;;;;5055332;28;20112;-74
2021/09/18 04:06:35;;;;;;;4.93;3.03;;;18.00;99.20;;;;;;5055299;28;20025;-73
2021/09/18 04:09:01;;;;;;;4.53;2.97;;;18.00;99.20;;;;;;5054896;28;20056;-73
2021/09/18 04:11:26;;;;;;;4.82;2.83;;;18.00;99.00;;;;;;5055186;28;20035;-73
2021/09/18 04:13:52;;;;;;;4.47;3.13;;;18.00;99.30;;;;;;5055085;28;20394;-73
2021/09/18 04:16:20;;;;;;;5.20;3.25;;;17.90;99.20;;;;;;5055110;28;20029;-72
2021/09/18 04:18:45;;;;;;;3.75;3.00;;;17.90;99.50;;;;;;5055114;28;20051;-74
2021/09/18 04:21:11;;;;;;;6.43;3.10;;;17.80;99.60;;;;;;5055269;28;20060;-73
2021/09/18 04:23:37;;;;;;;6.13;3.00;;;17.80;99.70;;;;;;5055224;28;20025;-72
2021/09/18 04:26:02;;;;;;;4.97;3.00;;;17.90;99.50;;;;;;5055175;28;20387;-74
2021/09/18 04:28:28;;;;;;;4.97;3.22;;;17.80;99.70;;;;;;5055205;28;20028;-73
2021/09/18 04:30:54;;;;;;;4.40;3.20;;;17.80;99.80;;;;;;5055132;28;20525;-74
2021/09/18 04:33:19;;;;;;;7.20;3.55;;;17.90;99.60;;;;;;5054991;28;20032;-75
2021/09/18 04:35:45;;;;;;;9.35;3.40;;;18.00;99.50;;;;;;5054776;28;20028;-74
2021/09/18 04:38:11;;;;;;;5.82;3.17;;;17.90;99.50;;;;;;5054711;28;20021;-73
2021/09/18 04:40:36;;;;;;;7.82;3.60;;;17.90;99.60;;;;;;5054626;28;20067;-73
2021/09/18 04:43:02;;;;;;;6.38;3.33;;;17.90;99.60;;;;;;5054483;28;20025;-74
2021/09/18 04:45:29;;;;;;;6.72;3.45;;;18.00;99.50;;;;;;5054600;28;20021;-72
2021/09/18 04:47:55;;;;;;;5.70;3.30;;;18.00;99.30;;;;;;5054494;28;20518;-75
2021/09/18 04:50:20;;;;;;;5.05;2.90;;;17.90;99.60;;;;;;5053227;28;20116;-74
2021/09/18 04:52:46;;;;;;;5.07;3.13;;;17.90;99.60;;;;;;5054351;28;20067;-73
2021/09/18 04:55:12;;;;;;;7.85;3.08;;;17.90;99.70;;;;;;5054340;28;20505;-73
2021/09/18 04:57:39;;;;;;;4.70;3.15;;;17.90;99.70;;;;;;5054581;28;20025;-73
2021/09/18 05:00:06;;;;;;;6.45;3.83;;;17.90;99.90;;;;;;5054238;28;20445;-72
2021/09/18 05:02:31;;;;;;;5.80;3.55;;;18.00;99.60;;;;;;5054183;28;20017;-75
2021/09/18 05:04:57;;;;;;;5.68;3.40;;;18.00;99.70;;;;;;5054205;28;20025;-75
2021/09/18 05:07:22;;;;;;;5.53;3.10;;;17.90;99.80;;;;;;5053896;28;20057;-75
2021/09/18 05:09:48;;;;;;;6.05;3.55;;;18.10;99.70;;;;;;5054087;28;20487;-74
2021/09/18 05:12:14;;;;;;;8.32;3.10;;;18.00;99.70;;;;;;5054018;28;20103;-73
2021/09/18 05:14:40;;;;;;;8.75;3.80;;;18.10;99.60;;;;;;5054172;28;20100;-74
2021/09/18 05:17:05;;;;;;;6.20;3.30;;;18.10;99.40;;;;;;5054256;28;20021;-73
2021/09/18 05:19:31;;;;;;;5.70;3.20;;;18.00;99.50;;;;;;5054167;28;20061;-75
2021/09/18 05:21:56;;;;;;;5.07;2.95;;;18.10;99.30;;;;;;5053864;28;20020;-75
2021/09/18 05:24:23;;;;;;;5.03;2.90;;;18.10;99.20;;;;;;5054319;28;20124;-73
2021/09/18 05:26:48;;;;;;;5.43;3.25;;;18.00;99.20;;;;;;5053793;28;20021;-73
2021/09/18 05:29:14;;;;;;;9.40;3.30;;;17.90;99.70;;;;;;5054067;28;20025;-73
2021/09/18 05:31:40;;;;;;;6.32;3.10;;;17.90;99.60;;;;;;5053968;28;20514;-74
2021/09/18 05:34:05;;;;;;;4.57;3.13;;;18.00;99.50;;;;;;5053544;28;20025;-72
2021/09/18 05:36:31;;;;;;;6.72;3.35;;;17.90;99.60;;;;;;5053844;28;20104;-74
2021/09/18 05:38:57;;;;;;;5.38;3.05;;;17.80;99.90;;;;;;5054157;28;20029;-74
2021/09/18 05:41:22;;;;;;;6.32;3.55;;;17.90;99.80;;;;;;5053760;28;20104;-74
2021/09/18 05:43:48;;;;;;;5.97;3.25;;;18.00;99.40;;;;;;5053790;28;20106;-72
2021/09/18 05:46:14;;;;;;;4.57;3.08;;;18.00;99.20;;;;;;5052160;28;20112;-72
2021/09/18 05:48:39;;;;;;;5.28;3.25;;;18.00;99.10;;;;;;5053975;28;20057;-73
2021/09/18 05:51:05;;;;;;;4.50;3.25;;;18.10;99.20;;;;;;5053396;28;20079;-73
2021/09/18 05:53:30;;;;;;;5.15;3.45;;;18.10;99.00;;;;;;5053488;28;20029;-74
2021/09/18 05:55:56;;;;;;;4.82;3.13;;;18.20;98.70;;;;;;5052693;28;20029;-74
2021/09/18 05:58:22;;;;;;;7.40;3.90;;;18.20;98.80;;;;;;5053233;28;20090;-73
2021/09/18 06:00:47;;;;;;;5.75;3.20;;;18.20;98.60;;;;;;5053273;28;20032;-74
2021/09/18 06:03:13;;;;;;;5.65;3.40;;;18.10;98.70;;;;;;5053257;28;20025;-72
2021/09/18 06:05:38;;;;;;;6.40;3.75;;;17.90;99.40;;;;;;5053178;28;20021;-74
2021/09/18 06:08:04;;;;;;;6.38;3.08;;;17.90;99.50;;;;;;5052973;28;20049;-73
2021/09/18 06:10:30;;;;;;;6.85;3.35;;;17.80;99.50;;;;;;5053155;28;20053;-72
2021/09/18 06:12:56;;;;;;;5.18;3.50;;;17.70;99.90;;;;;;5053048;28;20021;-73
2021/09/18 06:15:21;;;;;;;7.00;3.58;;;17.60;99.90;;;;;;5053337;28;20021;-74
2021/09/18 06:17:47;;;;;;;6.32;3.90;;;17.50;99.90;;;;;;5051772;28;20027;-73
2021/09/18 06:20:13;;;;;;;6.82;3.53;;;17.60;99.90;;;;;;5052997;28;20023;-74
2021/09/18 06:22:38;;;;;;;6.72;3.65;;;17.70;99.90;;;;;;5053028;28;20102;-75
2021/09/18 06:25:05;;;;;;;5.38;3.75;;;17.80;99.90;;;;;;5053232;28;20025;-73
2021/09/18 06:27:31;;;;;;;5.97;3.63;;;17.70;99.90;;;;;;5053293;28;20037;-73
2021/09/18 06:29:57;;;;;;;6.05;3.22;;;17.60;99.90;;;;;;5052935;28;20021;-73
2021/09/18 06:32:23;;;;;;;6.30;4.03;;;17.60;99.90;;;;;;5052905;28;20029;-73
2021/09/18 06:34:48;;;;;;;7.13;3.80;;;17.70;99.90;;;;;;5053092;28;20021;-74
2021/09/18 06:37:14;;;;;;;6.38;4.15;;;17.80;99.90;;;;;;5052863;28;20518;-73
2021/09/18 06:39:40;;;;;;;6.15;3.92;;;17.90;99.90;;;;;;5052868;28;20021;-73
2021/09/18 06:42:06;;;;;;;5.40;3.38;;;17.90;99.90;;;;;;5052800;28;20538;-73
2021/09/18 06:44:31;;;;;;;7.28;3.92;;;17.90;99.90;;;;;;5052808;28;20056;-75
2021/09/18 06:46:57;;;;;;;5.53;3.75;;;17.90;99.90;;;;;;5053019;28;20386;-74
2021/09/18 06:49:22;;;;;;;4.82;3.15;;;17.90;99.90;;;;;;5053007;28;20503;-72
2021/09/18 06:51:48;;;;;;;7.75;3.55;;;18.00;99.90;;;;;;5052992;28;20025;-74
2021/09/18 06:54:14;;;;;;;6.72;3.50;;;18.10;99.80;;;;;;5052891;28;20029;-75
2021/09/18 06:56:39;;;;;;;5.15;3.53;;;18.10;99.80;;;;;;5052696;28;20029;-72
2021/09/18 06:59:05;;;;;;;8.88;3.97;;;18.10;99.50;;;;;;5052579;28;20479;-75
2021/09/18 07:01:31;;;;;;;4.93;3.72;;;18.20;99.90;;;;;;5052659;28;20025;-74
2021/09/18 07:03:56;;;;;;;8.05;3.95;;;18.20;99.70;;;;;;5052602;28;20071;-74
2021/09/18 07:06:22;;;;;;;6.25;3.60;;;18.20;99.40;;;;;;5054768;28;20501;-74
2021/09/18 07:08:48;;;;;;;6.90;3.38;;;18.20;99.80;;;;;;5056012;28;20136;-74
2021/09/18 07:11:14;;;;;;;5.78;3.50;;;18.20;99.70;;;;;;5056621;28;20052;-73
2021/09/18 07:13:39;;;;;;;6.80;3.85;;;18.20;99.60;;;;;;5056192;28;20017;-74
2021/09/18 07:16:05;;;;;;;5.53;3.65;;;18.20;99.60;;;;;;5056556;28;20474;-72
2021/09/18 07:18:32;;;;;;;6.32;3.67;;;18.20;99.30;;;;;;5056241;28;20139;-74
2021/09/18 07:20:58;;;;;;;6.18;3.63;;;18.10;99.90;;;;;;5056428;28;20022;-74
2021/09/18 07:23:24;;;;;;;5.18;3.97;;;17.90;99.90;;;;;;5056103;28;20036;-73
2021/09/18 07:25:50;;;;;;;6.78;3.95;;;17.90;99.90;;;;;;5056341;28;20429;-74
2021/09/18 07:28:15;;;;;;;6.05;3.95;;;18.00;99.90;;;;;;5056263;28;20029;-72
2021/09/18 07:30:41;;;;;;;8.13;4.10;;;18.00;99.90;;;;;;5055967;28;20025;-73
2021/09/18 07:33:07;;;;;;;6.15;4.07;;;17.90;99.90;;;;;;5056092;28;20407;-75
2021/09/18 07:35:32;;;;;;;6.35;3.70;;;18.00;99.90;;;;;;5055854;28;20032;-72
2021/09/18 07:38:03;;;;;;;9.20;4.30;;;18.10;99.90;;;;;;5056355;28;20063;-74
2021/09/18 07:40:29;;;;;;;8.38;5.60;;;18.00;99.90;;;;;;5054262;28;20556;-74
2021/09/18 07:42:54;;;;;;;9.43;5.45;;;18.10;99.90;;;;;;5056050;28;20025;-72
2021/09/18 07:45:20;;;;;;;12.20;5.93;;;17.70;99.90;;;;;;5055986;28;20483;-72
2021/09/18 07:47:45;;;;;;;9.60;5.38;;;17.70;99.90;;;;;;5055683;28;20028;-76
2021/09/18 07:50:11;;;;;;;9.48;5.32;;;17.60;99.90;;;;;;5055951;28;20104;-75
2021/09/18 07:52:37;;;;;;;9.45;5.07;;;17.60;99.90;;;;;;5054378;28;20114;-76
2021/09/18 07:55:03;;;;;;;6.47;4.47;;;17.40;99.90;;;;;;5055440;28;20033;-73
2021/09/18 07:57:29;;;;;;;9.18;5.47;;;17.40;99.90;;;;;;5056050;28;20104;-74
2021/09/18 07:59:55;;;;;;;6.90;4.80;;;17.40;99.90;;;;;;5055366;28;20086;-73
2021/09/18 08:02:21;;;;;;;8.07;5.55;;;17.60;99.90;;;;;;5055706;28;20436;-73
2021/09/18 08:04:47;;;;;;;7.97;5.50;;;17.50;99.90;;;;;;5055302;28;20059;-74
2021/09/18 08:07:12;;;;;;;7.35;4.50;;;17.50;99.90;;;;;;5055348;28;20035;-75
2021/09/18 08:09:38;;;;;;;8.98;5.00;;;17.50;99.90;;;;;;5055611;28;20033;-75
2021/09/18 08:12:04;;;;;;;8.57;4.97;;;17.40;99.90;;;;;;5055222;28;20476;-73
2021/09/18 08:14:30;;;;;;;8.68;5.07;;;17.30;99.90;;;;;;5055386;28;20032;-75
2021/09/18 08:16:55;;;;;;;6.97;5.00;;;17.40;99.90;;;;;;5055004;28;20040;-76
2021/09/18 08:19:21;;;;;;;6.97;4.45;;;17.30;99.90;;;;;;5054808;28;20036;-77
2021/09/18 08:21:49;;;;;;;7.07;4.80;;;17.30;99.90;;;;;;5055045;28;20017;-75
2021/09/18 08:24:17;;;;;;;5.88;4.05;;;17.40;99.90;;;;;;5054921;28;20025;-74
2021/09/18 08:26:43;;;;;;;7.78;4.25;;;17.60;99.90;;;;;;5054300;28;20154;-75
2021/09/18 08:29:09;;;;;;;7.13;5.20;;;17.70;99.90;;;;;;5054906;28;20107;-75
2021/09/18 08:31:34;;;;;;;8.85;5.13;;;17.80;99.90;;;;;;5054818;28;20025;-76
2021/09/18 08:34:00;;;;;;;7.40;4.57;;;17.80;99.90;;;;;;5054963;28;20027;-74
2021/09/18 08:36:26;;;;;;;7.70;4.45;;;17.90;99.90;;;;;;5054749;28;20039;-74
2021/09/18 08:38:52;;;;;;;8.43;4.60;;;18.10;99.90;;;;;;5054639;28;20391;-73
2021/09/18 08:41:18;;;;;;;6.45;4.20;;;17.90;99.90;;;;;;5054519;28;20074;-75
2021/09/18 08:43:44;;;;;;;7.10;4.65;;;17.90;99.90;;;;;;5055046;28;20083;-73
2021/09/18 08:46:10;;;;;;;9.77;5.57;;;17.90;99.90;;;;;;5054646;28;20112;-75
2021/09/18 08:48:39;;;;;;;7.90;4.82;;;17.90;99.90;;;;;;5054938;28;20032;-73
2021/09/18 08:51:05;;;;;;;8.40;4.90;;;18.30;99.90;;;;;;5054736;28;20021;-73
2021/09/18 08:53:30;;;;;;;10.23;5.13;;;18.50;99.90;;;;;;5054598;28;20433;-73
2021/09/18 08:55:57;;;;;;;7.18;4.63;;;18.50;99.90;;;;;;5054411;28;20021;-75
2021/09/18 08:58:24;;;;;;;6.63;4.28;;;18.60;99.90;;;;;;5054244;28;20021;-75
2021/09/18 09:00:52;;;;;;;8.05;4.47;;;18.60;99.90;;;;;;5054276;28;20629;-73
2021/09/18 09:03:30;;;;;;;6.93;4.60;;;18.50;99.90;;;;;;5054260;28;20390;-73
2021/09/18 09:06:14;;;;;;;8.70;4.78;;;18.40;99.90;;;;;;5054212;28;20079;-74
2021/09/18 09:08:53;;;;;;;5.72;4.00;;;18.50;99.90;;;;;;5053934;28;20055;-74
2021/09/18 09:11:21;;;;;;;6.45;4.40;;;18.80;99.90;;;;;;5054145;28;20029;-73
2021/09/18 09:14:04;;;;;;;9.65;4.35;;;18.60;99.90;;;;;;5054293;28;20028;-73
2021/09/18 09:16:32;;;;;;;8.45;5.10;;;18.70;99.90;;;;;;5054340;28;20092;-73
2021/09/18 09:19:11;;;;;;;7.80;4.60;;;18.80;99.90;;;;;;5054239;28;20048;-74
2021/09/18 09:21:49;;;;;;;6.90;4.10;;;18.70;99.90;;;;;;5053889;28;20467;-73
2021/09/18 09:24:16;;;;;;;7.47;3.90;;;18.80;99.90;;;;;;5054409;28;20040;-72
2021/09/18 09:27:03;;;;;;;6.22;4.13;;;18.90;99.90;;;;;;5053736;28;20122;-72
2021/09/18 09:29:48;;;;;;;6.55;4.40;;;19.20;99.90;;;;;;5053097;28;20029;-72
2021/09/18 09:32:26;;;;;;;6.32;4.28;;;19.50;99.90;;;;;;5053617;28;20025;-73
2021/09/18 09:34:53;;;;;;;8.43;4.55;;;20.10;99.80;;;;;;5053595;28;20032;-74
2021/09/18 09:37:19;;;;;;;10.65;3.97;;;20.90;97.30;;;;;;5053642;28;20075;-73
2021/09/18 09:39:51;;;;;;;5.88;3.63;;;21.50;95.70;;;;;;5053799;28;20021;-73
2021/09/18 09:42:27;;;;;;;6.68;3.55;;;21.80;93.90;;;;;;5053774;28;20021;-74
2021/09/18 09:44:53;;;;;;;4.97;3.60;;;21.80;93.30;;;;;;5053452;28;20376;-73
2021/09/18 09:47:22;;;;;;;6.85;3.08;;;22.10;94.30;;;;;;5053466;28;20446;-73
2021/09/18 09:49:49;;;;;;;7.45;3.45;;;22.40;91.80;;;;;;5053541;28;20096;-74
2021/09/18 09:52:17;;;;;;;5.63;3.50;;;22.90;91.50;;;;;;5053428;28;20066;-73
2021/09/18 09:54:43;;;;;;;5.47;3.58;;;22.80;91.10;;;;;;5053321;28;20033;-74
2021/09/18 09:57:13;;;;;;;5.65;3.40;;;22.90;90.60;;;;;;5053353;28;20383;-74
2021/09/18 09:59:40;;;;;;;6.05;2.97;;;23.10;90.90;;;;;;5053284;28;20021;-74
2021/09/18 10:02:10;;;;;;;4.38;2.90;;;22.90;90.50;;;;;;5053118;28;20024;-74
2021/09/18 10:04:37;;;;;;;4.95;3.25;;;22.20;90.60;;;;;;5053760;28;20131;-73
2021/09/18 10:07:04;;;;;;;4.95;3.20;;;21.70;92.40;;;;;;5052495;28;20059;-74
2021/09/18 10:09:30;;;;;;;4.47;3.30;;;21.40;93.50;;;;;;5053347;28;20043;-72
2021/09/18 10:11:57;;;;;;;5.72;3.28;;;21.10;94.50;;;;;;5053112;28;20100;-74
2021/09/18 10:14:27;;;;;;;8.48;3.13;;;21.10;95.00;;;;;;5053539;28;20033;-73
2021/09/18 10:16:56;;;;;;;5.82;3.25;;;21.40;94.80;;;;;;5052822;28;20090;-72
2021/09/18 10:24:56;;;;;;;4.28;2.72;;;21.80;93.80;;;;;;5053675;28;20102;-74
2021/09/18 10:27:25;;;;;;;4.28;2.83;;;21.80;92.50;;;;;;5052856;28;20021;-72
2021/09/18 10:29:51;;;;;;;4.50;2.80;;;21.50;93.20;;;;;;5052973;28;20104;-74
2021/09/18 10:32:19;;;;;;;5.50;2.65;;;21.10;94.00;;;;;;5053198;28;20032;-71
2021/09/18 10:34:44;;;;;;;5.53;2.88;;;20.80;94.10;;;;;;5051636;28;20057;-73
2021/09/18 10:37:30;;;;;;;3.20;2.20;;;20.60;95.40;;;;;;5053153;28;20045;-73
2021/09/18 10:40:07;;;;;;;5.25;2.58;;;20.80;94.20;;;;;;5053428;28;20028;-73
2021/09/18 10:42:35;;;;;;;3.63;2.30;;;20.90;94.10;;;;;;5057073;28;20029;-72
2021/09/18 10:45:01;;;;;;;3.40;2.15;;;20.80;95.10;;;;;;5057188;28;20052;-73
2021/09/18 10:47:49;;;;;;;5.97;3.10;;;20.80;95.30;;;;;;5056904;28;20395;-73
2021/09/18 10:50:20;;;;;;;3.58;2.65;;;20.80;96.10;;;;;;5056910;28;20017;-71
2021/09/18 10:53:00;;;;;;;2.47;2.25;;;20.90;95.70;;;;;;5057217;28;20017;-73
2021/09/18 10:55:27;;;;;;;5.55;2.78;;;20.90;95.20;;;;;;5056752;28;20025;-76
2021/09/18 10:57:52;;;;;;;5.30;3.00;;;20.90;96.10;;;;;;5056664;28;20032;-73
2021/09/18 11:00:18;;;;;;;4.53;2.83;;;20.90;95.00;;;;;;5056554;28;20467;-73
2021/09/18 11:02:45;;;;;;;5.03;2.40;;;20.80;95.00;;;;;;5056597;28;20029;-73
2021/09/18 11:05:31;;;;;;;3.33;2.33;;;20.80;95.10;;;;;;5056732;28;20029;-73
2021/09/18 11:08:02;;;;;;;4.80;2.78;;;20.70;95.30;;;;;;5045789;28;20154;-74
2021/09/18 11:10:27;;;;;;;2.83;2.42;;;20.60;95.50;;;;;;5056662;28;20024;-73
2021/09/18 11:13:12;;;;;;;5.40;1.80;;;20.80;96.20;;;;;;5056860;28;20029;-73
2021/09/18 11:15:57;;;;;;;1.70;1.10;;;21.10;95.00;;;;;;5056253;28;20029;-70
2021/09/18 11:18:43;;;;;;;1.13;0.80;;;21.30;93.90;;;;;;5056460;28;20025;-73
2021/09/18 11:21:21;;;;;;;1.58;0.70;;;21.40;91.90;;;;;;5056755;28;20379;-73
2021/09/18 11:23:49;;;;;;;1.80;0.85;;;21.50;91.70;;;;;;5056452;28;20054;-73
2021/09/18 11:26:35;;;;;;;5.60;1.42;;;21.50;91.20;;;;;;5056084;28;20028;-73
2021/09/18 11:29:15;;;;;;;3.75;1.40;;;21.70;91.80;;;;;;5054660;28;20025;-72
2021/09/18 11:32:10;;;;;;;3.50;1.20;;;21.80;90.60;;;;;;5055936;28;20395;-73
2021/09/18 11:34:55;;;;;;;3.20;1.27;;;21.80;90.70;;;;;;5055953;28;20083;-73
2021/09/18 11:37:35;;;;;;;3.38;1.38;;;21.70;91.30;;;;;;5055883;28;20021;-73
2021/09/18 11:40:00;;;;;;;3.75;1.58;;;21.70;91.60;;;;;;5055412;28;20108;-73
2021/09/18 11:42:42;;;;;;;2.92;1.15;;;21.80;91.30;;;;;;5055684;28;20091;-73
2021/09/18 11:45:14;;;;;;;3.42;1.25;;;21.80;90.50;;;;;;5054193;28;20052;-73
2021/09/18 11:47:42;;;;;;;2.53;1.08;;;21.90;90.80;;;;;;5055776;28;20033;-73
2021/09/18 11:50:28;;;;;;;1.40;0.95;;;22.00;89.70;;;;;;5055622;28;20045;-73
2021/09/18 11:53:00;;;;;;;1.55;0.82;;;22.00;89.00;;;;;;5053021;28;20036;-73
2021/09/18 11:55:34;;;;;;;1.38;0.82;;;22.00;89.50;;;;;;5054226;28;20036;-73
2021/09/18 11:58:15;;;;;;;2.30;1.00;;;21.80;89.50;;;;;;5056018;28;20361;-73
2021/09/18 12:00:49;;;;;;;2.25;0.68;;;21.80;90.20;;;;;;5055826;28;20096;-73
2021/09/18 12:03:20;;;;;;;2.33;0.63;;;21.80;89.40;;;;;;5055681;28;20060;-73
2021/09/18 12:05:57;;;;;;;3.00;0.88;;;21.70;89.90;;;;;;5055987;28;20018;-73
2021/09/18 12:08:25;;;;;;;1.80;0.60;;;21.70;90.50;;;;;;5055149;28;20414;-73
2021/09/18 12:10:56;;;;;;;0.85;0.55;;;21.70;90.40;;;;;;5054032;28;20017;-73
2021/09/18 12:13:23;;;;;;;3.88;1.00;;;21.70;90.30;;;;;;5055502;28;20025;-73
2021/09/18 12:15:51;;;;;;;1.65;0.80;;;21.70;90.50;;;;;;5055189;28;20506;-73
2021/09/18 12:18:28;;;;;;;1.08;0.88;;;21.80;90.30;;;;;;5055131;28;20039;-73
2021/09/18 12:20:57;;;;;;;4.63;1.02;;;21.90;90.70;;;;;;5055681;28;20092;-73
2021/09/18 12:23:23;;;;;;;4.70;0.95;;;22.00;89.00;;;;;;5055052;28;20025;-73
2021/09/18 12:26:02;;;;;;;2.80;0.95;;;22.00;90.00;;;;;;5055234;28;20048;-73
2021/09/18 12:28:30;;;;;;;2.40;0.80;;;22.00;90.20;;;;;;5055258;28;20522;-73
2021/09/18 12:30:57;;;;;;;2.42;0.73;;;22.00;89.50;;;;;;5054893;28;20017;-73
2021/09/18 12:33:33;;;;;;;2.38;0.90;;;22.00;88.40;;;;;;5054794;28;20407;-72
2021/09/18 12:36:06;;;;;;;1.92;0.70;;;21.90;89.10;;;;;;5055122;28;20498;-73
2021/09/18 12:38:32;;;;;;;1.40;0.73;;;21.80;90.30;;;;;;5055089;28;20052;-73
2021/09/18 12:41:06;;;;;;;3.30;0.80;;;21.90;87.50;;;;;;5054726;28;20433;-73
2021/09/18 12:43:32;;;;;;;2.17;0.73;;;22.00;88.40;;;;;;5055015;28;20032;-73
2021/09/18 12:46:12;;;;;;;2.40;0.88;;;22.00;88.00;;;;;;5054638;28;20025;-73
2021/09/18 12:48:40;;;;;;;2.50;0.73;;;22.00;89.00;;;;;;5053104;28;20025;-72
2021/09/18 12:51:11;;;;;;;1.38;0.73;;;22.10;89.60;;;;;;5054506;28;20029;-73
2021/09/18 12:53:48;;;;;;;1.08;0.68;;;22.30;88.20;;;;;;5054440;28;20090;-73